Time;durP1;ratioP1;P1;durP2;ratioP2;P2;SDS_P1;SDS_P2;PMS_P1;PMS_P2;Temp;Humidity;BMP_temperature;BMP_pressure;BME280_temperature;BME280_humidity;BME280_pressure;Samples;Min_cycle;Max_cycle;Signal;HPM_P1;HPM_P2
2023/07/21 00:01:10;;;;;;;10.48;2.35;;;18.80;87.60;;;;;;4999769;28;20034;-84
2023/07/21 00:03:38;;;;;;;2.67;2.20;;;18.80;87.30;;;;;;4991336;28;20019;-87
2023/07/21 00:06:06;;;;;;;2.75;2.00;;;18.80;87.90;;;;;;4999217;28;20720;-87
2023/07/21 00:08:35;;;;;;;2.30;2.10;;;18.80;88.10;;;;;;4980812;28;20060;-87
2023/07/21 00:11:02;;;;;;;2.97;2.70;;;18.70;88.30;;;;;;4998730;28;20018;-87
2023/07/21 00:13:35;;;;;;;4.30;2.17;;;18.60;88.30;;;;;;4998791;28;20499;-88
2023/07/21 00:16:04;;;;;;;4.05;2.25;;;18.50;89.10;;;;;;5000866;28;20576;-86
2023/07/21 00:18:30;;;;;;;2.25;2.10;;;18.40;89.10;;;;;;5002474;28;20363;-88
2023/07/21 00:20:57;;;;;;;3.28;2.50;;;18.20;90.10;;;;;;5001512;28;20032;-87
2023/07/21 00:23:24;;;;;;;3.60;2.08;;;18.10;90.10;;;;;;5001174;28;20112;-86
2023/07/21 00:25:51;;;;;;;4.40;2.25;;;18.20;90.10;;;;;;4997146;28;20323;-87
2023/07/21 00:28:17;;;;;;;2.15;2.05;;;18.20;90.10;;;;;;4979116;28;20402;-87
2023/07/21 00:30:47;;;;;;;4.75;2.22;;;18.20;90.30;;;;;;4996646;28;20502;-87
2023/07/21 00:33:14;;;;;;;2.55;2.35;;;18.00;90.60;;;;;;4999219;28;20581;-88
2023/07/21 00:35:40;;;;;;;2.28;2.08;;;17.90;90.80;;;;;;5001250;28;20057;-87
2023/07/21 00:38:09;;;;;;;2.50;2.40;;;17.80;90.90;;;;;;5000817;28;20027;-87
2023/07/21 00:40:37;;;;;;;2.58;2.38;;;17.80;91.10;;;;;;5001047;28;20503;-86
2023/07/21 00:43:08;;;;;;;3.13;2.33;;;17.80;91.00;;;;;;4989148;28;20026;-88
2023/07/21 00:45:37;;;;;;;3.15;2.78;;;17.90;91.20;;;;;;5000280;28;20034;-87
2023/07/21 00:48:07;;;;;;;4.40;2.67;;;17.80;91.10;;;;;;4998621;28;20052;-87
2023/07/21 00:50:37;;;;;;;6.78;2.38;;;17.60;91.20;;;;;;4995795;28;20034;-87
2023/07/21 00:53:05;;;;;;;2.85;2.20;;;17.70;91.40;;;;;;4994048;28;20026;-87
2023/07/21 00:55:31;;;;;;;2.90;2.58;;;17.70;91.40;;;;;;4998982;28;20021;-87
2023/07/21 00:57:57;;;;;;;3.63;2.15;;;17.60;91.60;;;;;;4980139;28;20482;-87
2023/07/21 01:00:23;;;;;;;2.67;2.47;;;17.40;92.00;;;;;;4998012;28;20076;-86
2023/07/21 01:02:51;;;;;;;4.95;2.42;;;17.30;92.10;;;;;;4997549;28;20065;-87
2023/07/21 01:05:17;;;;;;;2.30;2.10;;;17.30;92.30;;;;;;4997283;28;20022;-85
2023/07/21 01:07:43;;;;;;;2.30;2.10;;;17.20;92.40;;;;;;4984088;28;20025;-87
2023/07/21 01:10:11;;;;;;;7.35;2.83;;;17.20;92.60;;;;;;4999821;28;20029;-86
2023/07/21 01:12:37;;;;;;;5.15;3.65;;;17.20;92.40;;;;;;4995777;28;20022;-87
2023/07/21 01:15:03;;;;;;;4.80;4.38;;;17.20;92.30;;;;;;4998392;28;20395;-87
2023/07/21 01:17:30;;;;;;;3.88;3.35;;;17.30;92.10;;;;;;4998931;28;20026;-85
2023/07/21 01:19:58;;;;;;;3.65;3.20;;;17.30;92.10;;;;;;4981267;28;20026;-87
2023/07/21 01:22:42;;;;;;;3.60;3.30;;;17.10;92.50;;;;;;4997449;28;20084;-86
2023/07/21 01:25:11;;;;;;;6.60;4.35;;;17.00;92.60;;;;;;4997565;28;20454;-85
2023/07/21 01:27:39;;;;;;;4.35;3.45;;;16.90;92.80;;;;;;5000682;28;20227;-87
2023/07/21 01:30:11;;;;;;;3.85;3.53;;;16.80;93.00;;;;;;4996359;28;20069;-85
2023/07/21 01:32:39;;;;;;;3.72;3.42;;;16.80;93.20;;;;;;4998659;28;20414;-86
2023/07/21 01:35:08;;;;;;;4.50;4.15;;;16.80;93.10;;;;;;4997970;28;20060;-86
2023/07/21 01:37:38;;;;;;;3.92;3.67;;;16.70;93.10;;;;;;5007106;28;20041;-86
2023/07/21 01:40:10;;;;;;;8.82;5.07;;;16.80;93.20;;;;;;5011886;28;20037;-83
2023/07/21 01:42:36;;;;;;;6.28;5.72;;;16.90;93.20;;;;;;5024784;28;20069;-82
2023/07/21 01:45:03;;;;;;;7.68;5.72;;;16.90;93.00;;;;;;5000933;28;20026;-87
2023/07/21 01:47:35;;;;;;;5.47;4.97;;;17.00;93.00;;;;;;4985873;28;20052;-87
2023/07/21 01:50:03;;;;;;;5.97;5.35;;;17.00;92.80;;;;;;4997719;28;20037;-86
2023/07/21 01:52:30;;;;;;;8.43;6.20;;;17.10;92.80;;;;;;4997362;28;20026;-86
2023/07/21 01:55:01;;;;;;;6.30;5.78;;;17.10;92.70;;;;;;5001188;28;20084;-86
2023/07/21 01:57:33;;;;;;;6.28;5.68;;;17.10;92.60;;;;;;4999974;28;20022;-86
2023/07/21 02:00:00;;;;;;;4.95;4.50;;;17.10;92.60;;;;;;4996256;28;20022;-87
2023/07/21 02:02:27;;;;;;;4.63;4.32;;;16.90;92.80;;;;;;4995348;28;20403;-87
2023/07/21 02:04:53;;;;;;;8.05;4.50;;;16.70;93.20;;;;;;4996730;28;20029;-86
2023/07/21 02:07:20;;;;;;;5.35;4.85;;;16.70;93.20;;;;;;4998655;28;20030;-87
2023/07/21 02:09:53;;;;;;;5.75;5.13;;;16.60;93.20;;;;;;4997170;28;20049;-86
2023/07/21 02:12:19;;;;;;;7.00;4.85;;;16.70;93.20;;;;;;4999593;28;20014;-86
2023/07/21 02:14:45;;;;;;;6.97;4.88;;;16.70;93.30;;;;;;4979391;28;20023;-86
2023/07/21 02:17:11;;;;;;;5.30;4.82;;;16.60;93.40;;;;;;4999876;28;20103;-85
2023/07/21 02:19:37;;;;;;;6.78;6.03;;;16.70;93.50;;;;;;4979968;28;20505;-85
2023/07/21 02:22:03;;;;;;;9.27;6.82;;;16.70;93.90;;;;;;4977316;28;20216;-86
2023/07/21 02:24:28;;;;;;;6.97;5.97;;;16.80;93.60;;;;;;4997947;28;20034;-85
2023/07/21 02:26:54;;;;;;;8.57;5.72;;;16.80;93.70;;;;;;4978777;28;20023;-85
2023/07/21 02:29:20;;;;;;;8.02;6.05;;;16.80;93.70;;;;;;4996197;28;20049;-86
2023/07/21 02:31:48;;;;;;;7.43;5.68;;;16.70;93.70;;;;;;4996547;28;20478;-85
2023/07/21 02:34:14;;;;;;;8.90;6.78;;;16.70;94.00;;;;;;5000090;28;20446;-85
2023/07/21 02:36:42;;;;;;;7.32;6.70;;;16.70;94.20;;;;;;5000307;28;20137;-86
2023/07/21 02:39:07;;;;;;;7.93;7.13;;;16.60;94.30;;;;;;4996970;28;20065;-86
2023/07/21 02:41:33;;;;;;;8.20;7.22;;;16.60;94.40;;;;;;4997704;28;20082;-81
2023/07/21 02:43:59;;;;;;;8.15;7.35;;;16.60;94.60;;;;;;4982447;28;20022;-86
2023/07/21 02:46:25;;;;;;;12.52;7.05;;;16.60;94.20;;;;;;5000489;28;20026;-86
2023/07/21 02:48:51;;;;;;;7.00;6.25;;;16.60;94.30;;;;;;4980979;28;20494;-86
2023/07/21 02:51:16;;;;;;;9.38;6.97;;;16.60;94.30;;;;;;5000057;28;20021;-86
2023/07/21 02:53:42;;;;;;;8.77;7.53;;;16.60;93.90;;;;;;5000708;28;20045;-85
2023/07/21 02:56:08;;;;;;;9.68;7.07;;;16.60;94.00;;;;;;5004006;28;20033;-86
2023/07/21 02:58:33;;;;;;;10.52;8.43;;;16.60;94.00;;;;;;5000403;28;20018;-86
2023/07/21 03:01:03;;;;;;;10.43;7.50;;;16.60;94.00;;;;;;4999475;28;20084;-87
2023/07/21 03:03:29;;;;;;;11.00;8.20;;;16.60;94.20;;;;;;5000868;28;20386;-87
2023/07/21 03:05:56;;;;;;;10.70;7.78;;;16.50;94.10;;;;;;4997059;28;20022;-85
2023/07/21 03:08:29;;;;;;;11.68;8.45;;;16.60;94.20;;;;;;5003816;28;20034;-86
2023/07/21 03:10:57;;;;;;;12.32;7.15;;;16.50;94.20;;;;;;4998037;28;20034;-85
2023/07/21 03:13:25;;;;;;;14.10;7.93;;;16.50;94.20;;;;;;5000201;28;20702;-86
2023/07/21 03:15:52;;;;;;;9.93;7.85;;;16.50;94.10;;;;;;4997896;28;20034;-87
2023/07/21 03:18:18;;;;;;;9.13;8.23;;;16.60;94.10;;;;;;4996386;28;20030;-86
2023/07/21 03:20:43;;;;;;;12.52;8.50;;;16.60;94.10;;;;;;5001299;28;20505;-85
2023/07/21 03:23:11;;;;;;;10.27;8.88;;;16.50;94.10;;;;;;5000686;28;20129;-87
2023/07/21 03:25:43;;;;;;;11.73;8.88;;;16.40;94.20;;;;;;4999671;28;20050;-87
2023/07/21 03:28:09;;;;;;;10.05;8.95;;;16.30;94.50;;;;;;5001645;28;20037;-86
2023/07/21 03:30:34;;;;;;;9.90;7.65;;;16.10;94.90;;;;;;4985112;28;20462;-85
2023/07/21 03:33:00;;;;;;;9.40;8.50;;;16.00;95.20;;;;;;4983334;28;20021;-86
2023/07/21 03:35:25;;;;;;;12.13;8.75;;;16.00;95.10;;;;;;4982118;28;20359;-87
2023/07/21 03:37:51;;;;;;;12.57;8.30;;;15.90;95.20;;;;;;4983346;28;20022;-87
2023/07/21 03:40:17;;;;;;;11.73;7.95;;;16.00;95.30;;;;;;4999368;28;20079;-86
2023/07/21 03:42:43;;;;;;;11.55;8.32;;;16.10;95.30;;;;;;5000037;28;20030;-87
2023/07/21 03:45:09;;;;;;;10.30;7.60;;;16.00;95.20;;;;;;4983015;28;20026;-86
2023/07/21 03:47:35;;;;;;;9.80;7.63;;;15.90;95.30;;;;;;4997987;28;20042;-86
2023/07/21 03:50:02;;;;;;;11.15;8.38;;;15.90;95.70;;;;;;4998658;28;20697;-86
2023/07/21 03:52:27;;;;;;;9.95;8.88;;;16.00;95.20;;;;;;4996295;28;20517;-85
2023/07/21 03:54:56;;;;;;;9.65;8.65;;;16.10;95.30;;;;;;4983153;28;20026;-86
2023/07/21 03:57:22;;;;;;;11.68;7.88;;;16.10;95.10;;;;;;4998656;28;20033;-86
2023/07/21 03:59:48;;;;;;;10.70;9.60;;;16.20;95.00;;;;;;5001258;28;20021;-86
2023/07/21 04:02:17;;;;;;;11.57;9.95;;;16.20;95.10;;;;;;5003304;28;20046;-85
2023/07/21 04:04:48;;;;;;;11.73;9.85;;;16.20;95.00;;;;;;5010182;28;20053;-84
2023/07/21 04:07:14;;;;;;;12.60;9.43;;;16.30;95.00;;;;;;5003574;28;20045;-84
2023/07/21 04:09:42;;;;;;;14.40;10.05;;;16.20;95.00;;;;;;5014842;28;20398;-86
2023/07/21 04:12:07;;;;;;;11.85;10.23;;;16.00;95.40;;;;;;4990156;28;20022;-86
2023/07/21 04:14:33;;;;;;;12.65;9.57;;;15.90;95.70;;;;;;4995248;28;20068;-86
2023/07/21 04:16:59;;;;;;;11.95;9.00;;;15.90;95.70;;;;;;4997561;28;20019;-85
2023/07/21 04:19:27;;;;;;;9.98;8.98;;;15.90;95.60;;;;;;4979732;28;20033;-85
2023/07/21 04:21:53;;;;;;;9.10;8.20;;;16.00;95.40;;;;;;4980006;28;20486;-85
2023/07/21 04:24:19;;;;;;;9.15;7.80;;;16.10;95.20;;;;;;4996583;28;20018;-86
2023/07/21 04:26:45;;;;;;;10.60;8.35;;;16.10;95.10;;;;;;4997745;28;20040;-85
2023/07/21 04:29:11;;;;;;;10.63;7.88;;;16.10;95.10;;;;;;4996924;28;20038;-86
2023/07/21 04:31:36;;;;;;;8.35;7.47;;;16.20;95.00;;;;;;4998552;28;20382;-86
2023/07/21 04:34:02;;;;;;;11.95;8.38;;;16.20;94.90;;;;;;4987069;28;20037;-86
2023/07/21 04:36:27;;;;;;;13.68;8.43;;;16.10;95.10;;;;;;4995213;28;20084;-86
2023/07/21 04:38:54;;;;;;;10.93;8.80;;;16.10;95.30;;;;;;4996115;28;20053;-86
2023/07/21 04:41:20;;;;;;;11.93;9.63;;;16.20;95.50;;;;;;4997389;28;20383;-85
2023/07/21 04:43:45;;;;;;;13.30;10.63;;;16.30;95.50;;;;;;4998953;28;20041;-86
2023/07/21 04:46:12;;;;;;;11.25;9.35;;;16.40;95.30;;;;;;4998558;28;20488;-85
2023/07/21 04:48:38;;;;;;;12.02;9.50;;;16.40;95.20;;;;;;4995763;28;20053;-85
2023/07/21 04:51:06;;;;;;;12.75;9.27;;;16.40;95.20;;;;;;4995178;28;20475;-86
2023/07/21 04:53:32;;;;;;;13.77;10.23;;;16.30;95.40;;;;;;4995470;28;20058;-85
2023/07/21 04:55:58;;;;;;;16.15;10.27;;;16.20;95.80;;;;;;4996534;28;20108;-85
2023/07/21 04:58:26;;;;;;;14.32;10.35;;;16.10;95.90;;;;;;4983948;28;20030;-83
2023/07/21 05:00:54;;;;;;;13.85;12.02;;;16.10;96.00;;;;;;5014927;28;20378;-85
2023/07/21 05:03:22;;;;;;;15.07;11.57;;;16.30;96.10;;;;;;4997634;28;20068;-85
2023/07/21 05:05:48;;;;;;;15.13;10.40;;;16.40;95.90;;;;;;4979402;28;20109;-85
2023/07/21 05:08:14;;;;;;;13.90;9.60;;;16.40;95.70;;;;;;4996523;28;20045;-86
2023/07/21 05:10:39;;;;;;;9.98;8.55;;;16.30;96.00;;;;;;4984500;28;20421;-86
2023/07/21 05:13:06;;;;;;;13.73;9.82;;;16.30;95.90;;;;;;4997251;28;20034;-86
2023/07/21 05:15:35;;;;;;;12.48;10.13;;;16.30;95.80;;;;;;4986787;28;20034;-85
2023/07/21 05:18:02;;;;;;;14.07;10.52;;;16.20;95.90;;;;;;4995784;28;20032;-86
2023/07/21 05:20:27;;;;;;;13.60;10.43;;;16.20;96.00;;;;;;4995876;28;20752;-85
2023/07/21 05:22:53;;;;;;;17.15;11.63;;;16.20;96.20;;;;;;4995123;28;20032;-85
2023/07/21 05:25:21;;;;;;;16.25;12.70;;;16.20;96.30;;;;;;4994740;28;20035;-86
2023/07/21 05:27:49;;;;;;;14.10;12.27;;;16.30;96.20;;;;;;4999577;28;20371;-85
2023/07/21 05:30:15;;;;;;;16.92;13.52;;;16.40;96.00;;;;;;4978190;28;20533;-83
2023/07/21 05:32:41;;;;;;;14.90;12.05;;;16.60;95.90;;;;;;4995845;28;20127;-85
2023/07/21 05:35:13;;;;;;;19.10;12.32;;;16.80;95.70;;;;;;4998422;28;20021;-85
2023/07/21 05:37:39;;;;;;;10.90;9.67;;;16.90;95.50;;;;;;4998506;28;20027;-86
2023/07/21 05:40:06;;;;;;;12.68;10.27;;;17.00;95.40;;;;;;5000715;28;20281;-85
2023/07/21 05:42:31;;;;;;;12.05;10.45;;;17.10;95.20;;;;;;4999304;28;20022;-85
2023/07/21 05:44:57;;;;;;;17.80;11.90;;;17.20;95.20;;;;;;4996608;28;20031;-85
2023/07/21 05:47:22;;;;;;;21.92;17.02;;;17.30;95.10;;;;;;4981311;28;20069;-84
2023/07/21 05:49:48;;;;;;;25.58;19.65;;;17.40;95.10;;;;;;5000354;28;20437;-86
2023/07/21 05:52:16;;;;;;;32.40;21.45;;;17.30;95.00;;;;;;4994725;28;20511;-79
2023/07/21 05:54:41;;;;;;;33.22;22.13;;;17.50;94.80;;;;;;4996017;28;20026;-79
2023/07/21 05:57:07;;;;;;;35.25;21.77;;;17.60;94.50;;;;;;4996758;28;20041;-79
2023/07/21 05:59:36;;;;;;;33.08;21.35;;;17.70;94.10;;;;;;4995860;28;20509;-78
2023/07/21 06:02:02;;;;;;;33.78;21.77;;;17.80;94.10;;;;;;4995098;28;20173;-78
2023/07/21 06:04:28;;;;;;;31.55;21.85;;;17.90;94.20;;;;;;4979684;28;20022;-78
2023/07/21 06:06:55;;;;;;;35.22;21.88;;;18.00;94.10;;;;;;4995254;28;20029;-79
2023/07/21 06:09:20;;;;;;;35.72;21.95;;;18.10;93.90;;;;;;4992376;28;20042;-79
2023/07/21 06:11:46;;;;;;;35.03;21.77;;;18.00;93.20;;;;;;5000266;28;20037;-78
2023/07/21 06:14:12;;;;;;;44.55;23.15;;;18.00;93.30;;;;;;5001746;28;20113;-79
2023/07/21 06:16:37;;;;;;;34.53;21.90;;;18.10;93.50;;;;;;4994496;28;20023;-80
2023/07/21 06:19:03;;;;;;;36.13;22.95;;;18.10;93.30;;;;;;4995211;28;20030;-78
2023/07/21 06:21:29;;;;;;;43.60;23.90;;;18.20;93.30;;;;;;4979989;28;20022;-79
2023/07/21 06:23:54;;;;;;;36.83;21.65;;;18.20;93.20;;;;;;4977765;28;20040;-79
2023/07/21 06:26:20;;;;;;;36.00;21.92;;;18.30;92.80;;;;;;4997098;28;20092;-79
2023/07/21 06:28:45;;;;;;;36.28;20.02;;;18.40;92.70;;;;;;5000112;28;20205;-78
2023/07/21 06:31:14;;;;;;;30.00;19.55;;;18.50;92.40;;;;;;4995643;28;20026;-79
2023/07/21 06:33:40;;;;;;;30.52;20.15;;;18.40;92.80;;;;;;4997274;28;20081;-78
2023/07/21 06:36:06;;;;;;;26.35;19.73;;;18.60;92.90;;;;;;4999633;28;20030;-79
2023/07/21 06:38:34;;;;;;;26.80;18.88;;;18.60;92.50;;;;;;5002164;28;20105;-79
2023/07/21 06:41:00;;;;;;;27.85;19.60;;;18.70;92.30;;;;;;4999309;28;20026;-79
2023/07/21 06:43:26;;;;;;;28.45;19.33;;;18.80;92.40;;;;;;4999440;28;21155;-78
2023/07/21 06:45:52;;;;;;;26.45;19.25;;;18.70;92.50;;;;;;5002205;28;20025;-79
2023/07/21 06:48:18;;;;;;;28.13;17.92;;;18.70;92.60;;;;;;4977231;28;20142;-79
2023/07/21 06:50:43;;;;;;;24.58;16.80;;;18.90;92.40;;;;;;4988302;28;20038;-79
2023/07/21 06:53:09;;;;;;;24.25;19.23;;;19.10;91.90;;;;;;4981404;28;20113;-80
2023/07/21 06:55:35;;;;;;;25.95;18.13;;;19.30;92.00;;;;;;4981416;28;20376;-78
2023/07/21 06:58:01;;;;;;;23.92;17.45;;;19.40;91.80;;;;;;4985715;28;20034;-78
2023/07/21 07:00:27;;;;;;;27.88;17.67;;;19.50;92.00;;;;;;4999167;28;20022;-80
2023/07/21 07:02:56;;;;;;;23.88;16.85;;;19.40;90.80;;;;;;4987480;28;20026;-79
2023/07/21 07:05:23;;;;;;;20.67;16.23;;;19.40;91.40;;;;;;4994566;28;20092;-78
2023/07/21 07:07:52;;;;;;;21.52;16.38;;;19.50;91.30;;;;;;4999171;28;20022;-79
2023/07/21 07:10:18;;;;;;;22.60;16.55;;;19.60;90.20;;;;;;4982411;28;20436;-79
2023/07/21 07:12:44;;;;;;;22.13;16.05;;;19.70;90.40;;;;;;4978491;28;20038;-78
2023/07/21 07:15:10;;;;;;;23.48;16.63;;;19.80;90.30;;;;;;4979554;28;20056;-78
2023/07/21 07:17:36;;;;;;;23.05;15.88;;;19.70;90.10;;;;;;5000171;28;20141;-79
2023/07/21 07:20:07;;;;;;;94.82;43.35;;;19.70;89.00;;;;;;4996270;28;20491;-78
2023/07/21 07:22:32;;;;;;;182.23;81.28;;;19.90;88.90;;;;;;4980483;28;20034;-79
2023/07/21 07:24:58;;;;;;;187.35;75.93;;;19.90;88.70;;;;;;4995090;28;20160;-78
2023/07/21 07:27:24;;;;;;;23.17;16.38;;;20.10;88.30;;;;;;4980304;28;20022;-78
2023/07/21 07:29:49;;;;;;;187.70;79.07;;;20.00;88.50;;;;;;4996632;28;20030;-79
2023/07/21 07:32:15;;;;;;;21.55;15.20;;;20.00;88.70;;;;;;4976957;28;20029;-78
2023/07/21 07:34:41;;;;;;;20.40;14.20;;;20.10;88.10;;;;;;5001174;28;20552;-78
2023/07/21 07:37:07;;;;;;;23.98;15.45;;;20.10;87.30;;;;;;4994789;28;20027;-79
2023/07/21 07:39:32;;;;;;;20.90;14.98;;;19.90;88.00;;;;;;4997265;28;20041;-79
2023/07/21 07:41:58;;;;;;;27.45;15.00;;;20.20;87.00;;;;;;4980695;28;20117;-77
2023/07/21 07:44:24;;;;;;;20.15;13.70;;;20.30;85.60;;;;;;4997403;28;20117;-77
2023/07/21 07:46:49;;;;;;;21.88;14.82;;;20.30;85.40;;;;;;4997839;28;20038;-78
2023/07/21 07:49:15;;;;;;;24.40;15.10;;;20.50;84.80;;;;;;4999896;28;20046;-77
2023/07/21 07:51:40;;;;;;;23.05;15.60;;;20.70;84.70;;;;;;4993202;28;20084;-78
2023/07/21 07:54:07;;;;;;;25.33;14.40;;;20.80;84.00;;;;;;4977754;28;20084;-77
2023/07/21 07:56:33;;;;;;;107.57;47.03;;;21.00;84.60;;;;;;4997152;28;20029;-78
2023/07/21 07:58:59;;;;;;;14.18;10.52;;;21.10;82.00;;;;;;4999966;28;20633;-78
2023/07/21 08:01:26;;;;;;;13.32;9.70;;;21.10;80.30;;;;;;4996222;28;20022;-78
2023/07/21 08:03:53;;;;;;;16.40;10.15;;;21.20;79.90;;;;;;4997202;28;20022;-78
2023/07/21 08:06:19;;;;;;;18.77;11.60;;;21.30;79.50;;;;;;4996909;28;20101;-78
2023/07/21 08:08:45;;;;;;;20.40;11.13;;;21.40;80.00;;;;;;4998096;28;20121;-78
2023/07/21 08:11:11;;;;;;;17.00;11.35;;;21.40;79.50;;;;;;4992755;28;20027;-80
2023/07/21 08:13:38;;;;;;;12.07;9.05;;;21.40;78.90;;;;;;4995978;28;20494;-78
2023/07/21 08:16:14;;;;;;;12.60;9.13;;;21.50;78.10;;;;;;4997487;28;20031;-78
2023/07/21 08:18:40;;;;;;;11.93;8.90;;;21.70;77.20;;;;;;4997058;28;20033;-78
2023/07/21 08:21:22;;;;;;;14.43;10.13;;;21.80;76.80;;;;;;4987226;28;20482;-78
2023/07/21 08:23:49;;;;;;;14.45;9.63;;;21.90;77.00;;;;;;4997745;28;20054;-79
2023/07/21 08:26:15;;;;;;;16.02;9.77;;;21.90;77.50;;;;;;4984057;28;20032;-78
2023/07/21 08:28:41;;;;;;;17.30;9.68;;;22.00;77.50;;;;;;4985733;28;20034;-79
2023/07/21 08:31:07;;;;;;;12.50;9.50;;;22.10;76.30;;;;;;4994820;28;20555;-78
2023/07/21 08:33:32;;;;;;;11.93;8.77;;;22.00;75.00;;;;;;4996286;28;20297;-78
2023/07/21 08:35:58;;;;;;;11.35;9.10;;;21.60;77.40;;;;;;4995599;28;20030;-78
2023/07/21 08:38:24;;;;;;;14.80;8.32;;;21.70;76.80;;;;;;4976243;28;20031;-78
2023/07/21 08:41:01;;;;;;;11.63;8.70;;;22.00;76.80;;;;;;4998369;28;20089;-78
2023/07/21 08:43:28;;;;;;;14.27;8.90;;;22.00;74.50;;;;;;4995369;28;20037;-78
2023/07/21 08:45:57;;;;;;;15.88;8.07;;;21.90;75.60;;;;;;4996594;28;20041;-76
2023/07/21 08:48:23;;;;;;;10.60;7.78;;;22.10;76.00;;;;;;4992197;28;20048;-78
2023/07/21 08:50:52;;;;;;;9.98;7.35;;;22.30;74.50;;;;;;4994584;28;20436;-78
2023/07/21 08:53:17;;;;;;;8.82;7.18;;;22.20;74.20;;;;;;4996566;28;20014;-79
2023/07/21 08:55:43;;;;;;;8.38;6.43;;;22.40;73.10;;;;;;4997558;28;20034;-78
2023/07/21 08:58:10;;;;;;;8.50;6.15;;;22.50;72.70;;;;;;4978650;28;20045;-78
2023/07/21 09:00:38;;;;;;;9.20;6.68;;;22.70;72.10;;;;;;4996224;28;20014;-78
2023/07/21 09:03:03;;;;;;;7.35;6.65;;;22.90;71.10;;;;;;4979690;28;20034;-78
2023/07/21 09:05:29;;;;;;;6.20;5.55;;;23.00;71.10;;;;;;4985135;28;20025;-79
2023/07/21 09:07:57;;;;;;;6.70;5.72;;;23.20;68.20;;;;;;4996061;28;20033;-79
2023/07/21 09:10:31;;;;;;;10.20;6.82;;;23.30;70.80;;;;;;4995689;28;20042;-78
2023/07/21 09:12:57;;;;;;;13.10;7.82;;;23.40;70.00;;;;;;4998309;28;20049;-78
2023/07/21 09:15:23;;;;;;;19.13;13.52;;;23.70;69.40;;;;;;4979583;28;20237;-78
2023/07/21 09:17:49;;;;;;;9.75;7.30;;;23.70;70.60;;;;;;4978011;28;20076;-78
2023/07/21 09:20:14;;;;;;;6.28;5.68;;;23.40;68.20;;;;;;4993902;28;20057;-78
2023/07/21 09:22:41;;;;;;;10.88;5.72;;;23.30;66.70;;;;;;4993188;28;20029;-78
2023/07/21 09:25:08;;;;;;;7.18;6.47;;;23.30;68.40;;;;;;4995139;28;20108;-78
2023/07/21 09:27:35;;;;;;;5.32;4.82;;;23.40;68.30;;;;;;4990646;28;20100;-78
2023/07/21 09:30:05;;;;;;;8.77;5.07;;;23.70;65.40;;;;;;4993860;28;20096;-79
2023/07/21 09:32:41;;;;;;;6.05;4.65;;;24.00;63.50;;;;;;4993809;28;20750;-78
2023/07/21 09:35:09;;;;;;;8.63;6.97;;;24.30;62.90;;;;;;4997067;28;20080;-79
2023/07/21 09:37:37;;;;;;;8.40;6.43;;;24.20;66.00;;;;;;4983515;28;20056;-78
2023/07/21 09:40:10;;;;;;;7.65;6.47;;;24.20;64.50;;;;;;4994533;28;20030;-78
2023/07/21 09:42:37;;;;;;;;;;;23.90;64.10;;;;;;4999092;28;20027;-80
2023/07/21 09:45:03;;;;;;;7.25;5.95;;;24.20;65.30;;;;;;4995746;28;20004;-78
2023/07/21 09:47:28;;;;;;;7.85;6.38;;;24.70;64.40;;;;;;4998175;28;20026;-78
2023/07/21 09:49:55;;;;;;;9.40;5.75;;;25.10;63.60;;;;;;4994999;28;20449;-78
2023/07/21 09:52:23;;;;;;;7.30;5.60;;;24.80;61.00;;;;;;4980495;28;20026;-79
2023/07/21 09:54:55;;;;;;;9.73;6.38;;;25.10;61.20;;;;;;4993509;28;20124;-78
2023/07/21 09:57:27;;;;;;;9.23;6.72;;;24.90;60.90;;;;;;4998602;28;20046;-79
2023/07/21 09:59:59;;;;;;;9.00;8.10;;;25.10;61.80;;;;;;4994194;28;20573;-79
2023/07/21 10:02:27;;;;;;;5.07;4.68;;;25.10;63.00;;;;;;4997794;28;20022;-79
2023/07/21 10:04:54;;;;;;;4.80;4.40;;;25.10;60.80;;;;;;4977735;28;20033;-79
2023/07/21 10:07:20;;;;;;;6.35;4.15;;;24.90;59.80;;;;;;4999045;28;20120;-79
2023/07/21 10:09:49;;;;;;;5.38;4.03;;;24.80;60.00;;;;;;4999743;28;20465;-79
2023/07/21 10:12:17;;;;;;;4.95;3.72;;;24.70;60.40;;;;;;4982835;28;20108;-79
2023/07/21 10:14:45;;;;;;;3.75;3.45;;;24.70;60.30;;;;;;4996737;28;20031;-79
2023/07/21 10:17:21;;;;;;;4.97;3.55;;;24.70;59.90;;;;;;4987014;28;20064;-79
2023/07/21 10:19:47;;;;;;;128.60;63.03;;;24.60;61.20;;;;;;4997604;28;20034;-78
2023/07/21 10:22:24;;;;;;;6.03;2.88;;;24.10;61.30;;;;;;4997419;28;20148;-78
2023/07/21 10:24:51;;;;;;;5.57;2.80;;;24.10;61.40;;;;;;4976696;28;20019;-79
2023/07/21 10:27:23;;;;;;;4.78;3.03;;;23.80;61.60;;;;;;4998539;28;20026;-79
2023/07/21 10:29:52;;;;;;;4.47;3.63;;;23.60;62.70;;;;;;4993460;28;20406;-78
2023/07/21 10:32:20;;;;;;;7.90;3.22;;;23.50;63.00;;;;;;4997614;28;20359;-79
2023/07/21 10:34:46;;;;;;;3.88;3.42;;;23.50;63.10;;;;;;4987328;28;20041;-78
2023/07/21 10:37:12;;;;;;;4.35;3.72;;;23.70;62.80;;;;;;4992237;28;20085;-78
2023/07/21 10:39:42;;;;;;;3.35;2.90;;;23.30;63.80;;;;;;4998256;28;20030;-79
2023/07/21 10:42:09;;;;;;;4.03;2.33;;;23.50;62.10;;;;;;4993529;28;20699;-79
2023/07/21 10:44:35;;;;;;;5.20;2.50;;;23.90;62.20;;;;;;4975623;28;20469;-78
2023/07/21 10:47:01;;;;;;;3.13;2.45;;;24.00;62.70;;;;;;4993809;28;20036;-80
2023/07/21 10:49:26;;;;;;;4.18;2.67;;;24.50;62.30;;;;;;4997672;28;20104;-79
2023/07/21 10:51:55;;;;;;;5.43;4.03;;;24.90;61.10;;;;;;4995466;28;20033;-79
2023/07/21 10:54:20;;;;;;;4.53;4.13;;;25.10;60.60;;;;;;4997221;28;20014;-79
2023/07/21 10:56:53;;;;;;;3.67;3.30;;;24.90;61.10;;;;;;5000371;28;20045;-79
2023/07/21 10:59:19;;;;;;;4.72;4.00;;;25.20;59.10;;;;;;4995047;28;20056;-79
2023/07/21 11:01:50;;;;;;;6.72;4.50;;;25.60;61.20;;;;;;5000561;28;20813;-78
2023/07/21 11:04:17;;;;;;;5.22;4.05;;;25.60;57.60;;;;;;4999263;28;20053;-78
2023/07/21 11:06:44;;;;;;;4.05;3.75;;;25.50;58.00;;;;;;4999810;28;20029;-78
2023/07/21 11:09:11;;;;;;;4.47;4.07;;;25.60;58.00;;;;;;4997462;28;20108;-76
2023/07/21 11:11:39;;;;;;;4.40;2.95;;;25.60;58.10;;;;;;5000987;28;20187;-78
2023/07/21 11:14:09;;;;;;;1.80;1.70;;;25.60;58.40;;;;;;4995863;28;20159;-78
2023/07/21 11:16:40;;;;;;;4.72;2.33;;;25.80;54.30;;;;;;4995702;28;20030;-79
2023/07/21 11:19:07;;;;;;;3.45;2.42;;;25.90;55.50;;;;;;4991973;28;20036;-79
2023/07/21 11:21:34;;;;;;;2.88;2.60;;;26.30;56.50;;;;;;4997286;28;20112;-79
2023/07/21 11:24:00;;;;;;;3.90;2.78;;;26.60;55.40;;;;;;4994701;28;20026;-79
2023/07/21 11:26:26;;;;;;;2.63;2.45;;;26.90;54.40;;;;;;4994153;28;20034;-78
2023/07/21 11:28:51;;;;;;;5.35;1.90;;;27.00;54.30;;;;;;4983832;28;20041;-77
2023/07/21 11:31:18;;;;;;;2.15;1.95;;;26.60;54.90;;;;;;4995326;28;20033;-76
2023/07/21 11:33:49;;;;;;;18.92;8.98;;;27.10;55.10;;;;;;4998246;28;20040;-77
2023/07/21 11:36:17;;;;;;;1.90;1.80;;;27.30;53.70;;;;;;4995949;28;20034;-77
2023/07/21 11:39:07;;;;;;;2.53;2.38;;;27.10;53.20;;;;;;4979342;28;20057;-77
2023/07/21 11:41:54;;;;;;;4.00;2.08;;;27.20;52.20;;;;;;4996322;28;20029;-77
2023/07/21 11:44:21;;;;;;;3.95;1.92;;;27.30;51.80;;;;;;4996764;28;20026;-80
2023/07/21 11:47:11;;;;;;;1.98;1.88;;;27.60;52.70;;;;;;4976304;28;20787;-77
2023/07/21 11:49:44;;;;;;;2.85;2.65;;;27.60;53.10;;;;;;4994937;28;20390;-77
2023/07/21 11:52:10;;;;;;;;;;;27.30;52.10;;;;;;4975877;28;20030;-77
2023/07/21 11:54:37;;;;;;;3.42;3.10;;;26.90;53.70;;;;;;4978442;28;20074;-80
2023/07/21 11:57:03;;;;;;;2.45;2.20;;;26.80;54.60;;;;;;4995649;28;20069;-79
2023/07/21 11:59:31;;;;;;;229.35;106.80;;;26.70;54.30;;;;;;4995942;28;20559;-79
2023/07/21 12:01:57;;;;;;;2.92;2.72;;;26.90;53.40;;;;;;4995606;28;20026;-78
2023/07/21 12:04:23;;;;;;;2.13;2.03;;;26.80;54.20;;;;;;4997473;28;20030;-79
2023/07/21 12:06:49;;;;;;;3.28;2.33;;;26.80;54.50;;;;;;4994704;28;20030;-78
2023/07/21 12:09:19;;;;;;;4.85;2.60;;;26.60;56.10;;;;;;4995407;28;20089;-79
2023/07/21 12:11:45;;;;;;;5.15;2.90;;;26.90;55.30;;;;;;4999145;28;20160;-78
2023/07/21 12:14:11;;;;;;;3.03;2.60;;;27.30;53.40;;;;;;4998075;28;20029;-79
2023/07/21 12:16:37;;;;;;;6.40;3.03;;;27.30;53.40;;;;;;4979381;28;20034;-79
2023/07/21 12:19:03;;;;;;;7.10;3.95;;;27.50;53.20;;;;;;4979154;28;20033;-79
2023/07/21 12:21:30;;;;;;;6.45;3.47;;;27.30;52.70;;;;;;4997657;28;20018;-79
2023/07/21 12:23:56;;;;;;;3.90;2.72;;;27.10;53.40;;;;;;4984531;28;20030;-79
2023/07/21 12:26:22;;;;;;;4.70;3.60;;;27.10;54.40;;;;;;4994721;28;20022;-79
2023/07/21 12:28:50;;;;;;;4.18;3.78;;;27.10;53.30;;;;;;4994964;28;20124;-78
2023/07/21 12:31:18;;;;;;;7.03;3.03;;;26.80;53.70;;;;;;4996563;28;20104;-79
2023/07/21 12:33:45;;;;;;;4.20;3.80;;;26.40;54.50;;;;;;4994416;28;20038;-78
2023/07/21 12:36:14;;;;;;;3.75;3.38;;;26.10;54.10;;;;;;4997493;28;20050;-78
2023/07/21 12:38:43;;;;;;;3.97;3.17;;;25.90;54.90;;;;;;4996480;28;20034;-78
2023/07/21 12:41:10;;;;;;;5.53;3.35;;;25.70;55.30;;;;;;4994311;28;20088;-79